sensor_id;sensor_type;location;lat;lon;timestamp;temperature;humidity
21787;DHT22;11055;50.870;4.316;2023-12-20T00:01:00;6.90;99.90
21787;DHT22;11055;50.870;4.316;2023-12-20T00:03:25;6.90;99.90
21787;DHT22;11055;50.870;4.316;2023-12-20T00:05:51;6.90;99.90
21787;DHT22;11055;50.870;4.316;2023-12-20T00:08:17;6.90;99.90
21787;DHT22;11055;50.870;4.316;2023-12-20T00:10:43;6.90;99.90
21787;DHT22;11055;50.870;4.316;2023-12-20T00:13:10;6.90;99.90
21787;DHT22;11055;50.870;4.316;2023-12-20T00:15:35;6.80;99.90
21787;DHT22;11055;50.870;4.316;2023-12-20T00:18:01;6.80;99.90
21787;DHT22;11055;50.870;4.316;2023-12-20T00:20:28;6.80;99.90
21787;DHT22;11055;50.870;4.316;2023-12-20T00:22:56;6.80;99.90
21787;DHT22;11055;50.870;4.316;2023-12-20T00:25:23;6.70;99.90
21787;DHT22;11055;50.870;4.316;2023-12-20T00:27:49;6.70;99.90
21787;DHT22;11055;50.870;4.316;2023-12-20T00:30:14;6.70;99.90
21787;DHT22;11055;50.870;4.316;2023-12-20T00:32:40;6.60;99.90
21787;DHT22;11055;50.870;4.316;2023-12-20T00:35:12;6.60;99.90
21787;DHT22;11055;50.870;4.316;2023-12-20T00:37:37;6.70;99.90
21787;DHT22;11055;50.870;4.316;2023-12-20T00:40:04;6.70;99.90
21787;DHT22;11055;50.870;4.316;2023-12-20T00:42:30;6.60;99.90
21787;DHT22;11055;50.870;4.316;2023-12-20T00:44:55;6.60;99.90
21787;DHT22;11055;50.870;4.316;2023-12-20T00:47:21;6.60;99.90
21787;DHT22;11055;50.870;4.316;2023-12-20T00:49:47;6.60;99.90
21787;DHT22;11055;50.870;4.316;2023-12-20T00:52:13;6.60;99.90
21787;DHT22;11055;50.870;4.316;2023-12-20T00:54:39;6.50;99.90
21787;DHT22;11055;50.870;4.316;2023-12-20T00:57:05;6.50;99.90
21787;DHT22;11055;50.870;4.316;2023-12-20T00:59:30;6.50;99.90
21787;DHT22;11055;50.870;4.316;2023-12-20T01:01:56;6.40;99.90
21787;DHT22;11055;50.870;4.316;2023-12-20T01:04:22;6.40;99.90
21787;DHT22;11055;50.870;4.316;2023-12-20T01:06:47;6.40;99.90
21787;DHT22;11055;50.870;4.316;2023-12-20T01:09:13;6.40;99.90
21787;DHT22;11055;50.870;4.316;2023-12-20T01:11:39;6.40;99.90
21787;DHT22;11055;50.870;4.316;2023-12-20T01:14:05;6.30;99.90
21787;DHT22;11055;50.870;4.316;2023-12-20T01:16:31;6.30;99.90
21787;DHT22;11055;50.870;4.316;2023-12-20T01:18:56;6.30;99.90
21787;DHT22;11055;50.870;4.316;2023-12-20T01:21:22;6.30;99.90
21787;DHT22;11055;50.870;4.316;2023-12-20T01:23:48;6.30;99.90
21787;DHT22;11055;50.870;4.316;2023-12-20T01:26:14;6.30;99.90
21787;DHT22;11055;50.870;4.316;2023-12-20T01:28:40;6.30;99.90
21787;DHT22;11055;50.870;4.316;2023-12-20T01:31:06;6.30;99.90
21787;DHT22;11055;50.870;4.316;2023-12-20T01:33:31;6.30;99.90
21787;DHT22;11055;50.870;4.316;2023-12-20T01:35:57;6.30;99.90
21787;DHT22;11055;50.870;4.316;2023-12-20T01:38:23;6.30;99.90
21787;DHT22;11055;50.870;4.316;2023-12-20T01:40:48;6.30;99.90
21787;DHT22;11055;50.870;4.316;2023-12-20T01:43:14;6.30;99.90
21787;DHT22;11055;50.870;4.316;2023-12-20T01:45:40;6.30;99.90
21787;DHT22;11055;50.870;4.316;2023-12-20T01:48:06;6.20;99.90
21787;DHT22;11055;50.870;4.316;2023-12-20T01:50:35;6.20;99.90
21787;DHT22;11055;50.870;4.316;2023-12-20T01:53:01;6.20;99.90
21787;DHT22;11055;50.870;4.316;2023-12-20T01:55:30;6.20;99.90
21787;DHT22;11055;50.870;4.316;2023-12-20T01:57:57;6.20;99.90
21787;DHT22;11055;50.870;4.316;2023-12-20T02:00:24;6.30;99.90
21787;DHT22;11055;50.870;4.316;2023-12-20T02:02:53;6.30;99.90
21787;DHT22;11055;50.870;4.316;2023-12-20T02:05:19;6.20;99.90
21787;DHT22;11055;50.870;4.316;2023-12-20T02:07:44;6.20;99.90
21787;DHT22;11055;50.870;4.316;2023-12-20T02:10:10;6.30;99.90
21787;DHT22;11055;50.870;4.316;2023-12-20T02:12:36;6.20;99.90
21787;DHT22;11055;50.870;4.316;2023-12-20T02:15:02;6.20;99.90
21787;DHT22;11055;50.870;4.316;2023-12-20T02:17:27;6.20;99.90
21787;DHT22;11055;50.870;4.316;2023-12-20T02:19:55;6.10;99.90
21787;DHT22;11055;50.870;4.316;2023-12-20T02:22:20;6.20;99.90
21787;DHT22;11055;50.870;4.316;2023-12-20T02:24:46;6.20;99.90
21787;DHT22;11055;50.870;4.316;2023-12-20T02:27:12;6.10;99.90
21787;DHT22;11055;50.870;4.316;2023-12-20T02:29:38;6.10;99.90
21787;DHT22;11055;50.870;4.316;2023-12-20T02:32:03;6.10;99.90
21787;DHT22;11055;50.870;4.316;2023-12-20T02:34:29;6.10;99.90
21787;DHT22;11055;50.870;4.316;2023-12-20T02:36:56;6.10;99.90
21787;DHT22;11055;50.870;4.316;2023-12-20T02:39:22;6.10;99.90
21787;DHT22;11055;50.870;4.316;2023-12-20T02:41:48;6.10;99.90
21787;DHT22;11055;50.870;4.316;2023-12-20T02:44:14;6.10;99.90
21787;DHT22;11055;50.870;4.316;2023-12-20T02:46:39;6.20;99.90
21787;DHT22;11055;50.870;4.316;2023-12-20T02:49:06;6.20;99.90
21787;DHT22;11055;50.870;4.316;2023-12-20T02:51:32;6.20;99.90
21787;DHT22;11055;50.870;4.316;2023-12-20T02:53:57;6.20;99.90
21787;DHT22;11055;50.870;4.316;2023-12-20T02:56:23;6.20;99.90
21787;DHT22;11055;50.870;4.316;2023-12-20T02:58:51;6.20;99.90
21787;DHT22;11055;50.870;4.316;2023-12-20T03:01:17;6.20;99.90
21787;DHT22;11055;50.870;4.316;2023-12-20T03:03:42;6.20;99.90
21787;DHT22;11055;50.870;4.316;2023-12-20T03:06:08;6.20;99.90
21787;DHT22;11055;50.870;4.316;2023-12-20T03:08:34;6.30;99.90
21787;DHT22;11055;50.870;4.316;2023-12-20T03:10:59;6.30;99.90
21787;DHT22;11055;50.870;4.316;2023-12-20T03:13:25;6.30;99.90
21787;DHT22;11055;50.870;4.316;2023-12-20T03:15:51;6.30;99.90
21787;DHT22;11055;50.870;4.316;2023-12-20T03:18:16;6.40;99.90
21787;DHT22;11055;50.870;4.316;2023-12-20T03:20:43;6.40;99.90
21787;DHT22;11055;50.870;4.316;2023-12-20T03:23:09;6.40;99.90
21787;DHT22;11055;50.870;4.316;2023-12-20T03:25:34;6.40;99.90
21787;DHT22;11055;50.870;4.316;2023-12-20T03:28:00;6.40;99.90
21787;DHT22;11055;50.870;4.316;2023-12-20T03:30:26;6.50;99.90
21787;DHT22;11055;50.870;4.316;2023-12-20T03:32:51;6.50;99.90
21787;DHT22;11055;50.870;4.316;2023-12-20T03:35:17;6.50;99.90
21787;DHT22;11055;50.870;4.316;2023-12-20T03:37:43;6.60;99.90
21787;DHT22;11055;50.870;4.316;2023-12-20T03:40:09;6.60;99.90
21787;DHT22;11055;50.870;4.316;2023-12-20T03:42:34;6.60;99.90
21787;DHT22;11055;50.870;4.316;2023-12-20T03:45:00;6.60;99.90
21787;DHT22;11055;50.870;4.316;2023-12-20T03:47:26;6.50;99.90
21787;DHT22;11055;50.870;4.316;2023-12-20T03:49:52;6.50;99.90
21787;DHT22;11055;50.870;4.316;2023-12-20T03:52:18;6.50;99.90
21787;DHT22;11055;50.870;4.316;2023-12-20T03:54:44;6.50;99.90
21787;DHT22;11055;50.870;4.316;2023-12-20T03:57:09;6.50;99.90
21787;DHT22;11055;50.870;4.316;2023-12-20T03:59:36;6.60;99.90
21787;DHT22;11055;50.870;4.316;2023-12-20T04:02:02;6.60;99.90
21787;DHT22;11055;50.870;4.316;2023-12-20T04:04:27;6.60;99.90
21787;DHT22;11055;50.870;4.316;2023-12-20T04:06:53;6.60;99.90
21787;DHT22;11055;50.870;4.316;2023-12-20T04:09:19;6.60;99.90
21787;DHT22;11055;50.870;4.316;2023-12-20T04:11:44;6.60;99.90
21787;DHT22;11055;50.870;4.316;2023-12-20T04:14:10;6.60;99.90
21787;DHT22;11055;50.870;4.316;2023-12-20T04:16:36;6.50;99.90
21787;DHT22;11055;50.870;4.316;2023-12-20T04:19:01;6.50;99.90
21787;DHT22;11055;50.870;4.316;2023-12-20T04:21:28;6.50;99.90
21787;DHT22;11055;50.870;4.316;2023-12-20T04:23:53;6.50;99.90
21787;DHT22;11055;50.870;4.316;2023-12-20T04:26:19;6.50;99.90
21787;DHT22;11055;50.870;4.316;2023-12-20T04:28:44;6.40;99.90
21787;DHT22;11055;50.870;4.316;2023-12-20T04:31:10;6.40;99.90
21787;DHT22;11055;50.870;4.316;2023-12-20T04:33:36;6.40;99.90
21787;DHT22;11055;50.870;4.316;2023-12-20T04:36:01;6.40;99.90
21787;DHT22;11055;50.870;4.316;2023-12-20T04:38:27;6.40;99.90
21787;DHT22;11055;50.870;4.316;2023-12-20T04:40:53;6.40;99.90
21787;DHT22;11055;50.870;4.316;2023-12-20T04:43:18;6.40;99.90
21787;DHT22;11055;50.870;4.316;2023-12-20T04:45:44;6.30;99.90
21787;DHT22;11055;50.870;4.316;2023-12-20T04:48:10;6.30;99.90
21787;DHT22;11055;50.870;4.316;2023-12-20T04:50:35;6.30;99.90
21787;DHT22;11055;50.870;4.316;2023-12-20T04:53:01;6.40;99.90
21787;DHT22;11055;50.870;4.316;2023-12-20T04:55:27;6.40;99.90
21787;DHT22;11055;50.870;4.316;2023-12-20T04:57:52;6.40;99.90
21787;DHT22;11055;50.870;4.316;2023-12-20T05:00:18;6.40;99.90
21787;DHT22;11055;50.870;4.316;2023-12-20T05:02:44;6.40;99.90
21787;DHT22;11055;50.870;4.316;2023-12-20T05:05:09;6.50;99.90
21787;DHT22;11055;50.870;4.316;2023-12-20T05:07:35;6.40;99.90
21787;DHT22;11055;50.870;4.316;2023-12-20T05:10:02;6.50;99.90
21787;DHT22;11055;50.870;4.316;2023-12-20T05:12:29;6.50;99.90
21787;DHT22;11055;50.870;4.316;2023-12-20T05:14:55;6.50;99.90
21787;DHT22;11055;50.870;4.316;2023-12-20T05:17:21;6.40;99.90
21787;DHT22;11055;50.870;4.316;2023-12-20T05:19:46;6.40;99.90
21787;DHT22;11055;50.870;4.316;2023-12-20T05:22:12;6.30;99.90
21787;DHT22;11055;50.870;4.316;2023-12-20T05:24:38;6.20;99.90
21787;DHT22;11055;50.870;4.316;2023-12-20T05:27:04;6.20;99.90
21787;DHT22;11055;50.870;4.316;2023-12-20T05:29:29;6.20;99.90
21787;DHT22;11055;50.870;4.316;2023-12-20T05:31:55;6.20;99.90
21787;DHT22;11055;50.870;4.316;2023-12-20T05:34:21;6.20;99.90
21787;DHT22;11055;50.870;4.316;2023-12-20T05:36:46;6.10;99.90
21787;DHT22;11055;50.870;4.316;2023-12-20T05:39:12;6.10;99.90
21787;DHT22;11055;50.870;4.316;2023-12-20T05:41:38;6.10;99.90
21787;DHT22;11055;50.870;4.316;2023-12-20T05:44:03;6.10;99.90
21787;DHT22;11055;50.870;4.316;2023-12-20T05:46:29;6.00;99.90
21787;DHT22;11055;50.870;4.316;2023-12-20T05:48:55;6.00;99.90
21787;DHT22;11055;50.870;4.316;2023-12-20T05:51:20;6.00;99.90
21787;DHT22;11055;50.870;4.316;2023-12-20T05:53:46;6.00;99.90
21787;DHT22;11055;50.870;4.316;2023-12-20T05:56:11;6.00;99.90
21787;DHT22;11055;50.870;4.316;2023-12-20T05:58:38;6.00;99.90
21787;DHT22;11055;50.870;4.316;2023-12-20T06:01:05;6.00;99.90
21787;DHT22;11055;50.870;4.316;2023-12-20T06:03:30;6.00;99.90
21787;DHT22;11055;50.870;4.316;2023-12-20T06:05:56;6.00;99.90
21787;DHT22;11055;50.870;4.316;2023-12-20T06:08:22;6.00;99.90
21787;DHT22;11055;50.870;4.316;2023-12-20T06:10:49;6.10;99.90
21787;DHT22;11055;50.870;4.316;2023-12-20T06:13:14;6.10;99.90
21787;DHT22;11055;50.870;4.316;2023-12-20T06:15:40;6.20;99.90
21787;DHT22;11055;50.870;4.316;2023-12-20T06:18:06;6.20;99.90
21787;DHT22;11055;50.870;4.316;2023-12-20T06:20:32;6.20;99.90
21787;DHT22;11055;50.870;4.316;2023-12-20T06:22:58;6.20;99.90
21787;DHT22;11055;50.870;4.316;2023-12-20T06:25:24;6.20;99.90
21787;DHT22;11055;50.870;4.316;2023-12-20T06:27:50;6.20;99.90
21787;DHT22;11055;50.870;4.316;2023-12-20T06:30:16;6.30;99.90
21787;DHT22;11055;50.870;4.316;2023-12-20T06:32:42;6.30;99.90
21787;DHT22;11055;50.870;4.316;2023-12-20T06:35:10;6.30;99.90
21787;DHT22;11055;50.870;4.316;2023-12-20T06:37:35;6.30;99.90
21787;DHT22;11055;50.870;4.316;2023-12-20T06:40:01;6.30;99.90
21787;DHT22;11055;50.870;4.316;2023-12-20T06:42:27;6.30;99.90
21787;DHT22;11055;50.870;4.316;2023-12-20T06:44:52;6.30;99.90
21787;DHT22;11055;50.870;4.316;2023-12-20T06:47:18;6.20;99.90
21787;DHT22;11055;50.870;4.316;2023-12-20T06:49:44;6.30;99.90
21787;DHT22;11055;50.870;4.316;2023-12-20T06:52:09;6.20;99.90
21787;DHT22;11055;50.870;4.316;2023-12-20T06:54:35;6.20;99.90
21787;DHT22;11055;50.870;4.316;2023-12-20T06:57:01;6.20;99.90
21787;DHT22;11055;50.870;4.316;2023-12-20T06:59:29;6.20;99.90
21787;DHT22;11055;50.870;4.316;2023-12-20T07:01:54;6.20;99.90
21787;DHT22;11055;50.870;4.316;2023-12-20T07:04:20;6.20;99.90
21787;DHT22;11055;50.870;4.316;2023-12-20T07:06:48;6.20;99.90
21787;DHT22;11055;50.870;4.316;2023-12-20T07:09:17;6.20;99.90
21787;DHT22;11055;50.870;4.316;2023-12-20T07:11:44;6.20;99.90
21787;DHT22;11055;50.870;4.316;2023-12-20T07:14:09;6.20;99.90
21787;DHT22;11055;50.870;4.316;2023-12-20T07:16:35;6.20;99.90
21787;DHT22;11055;50.870;4.316;2023-12-20T07:19:01;6.10;99.90
21787;DHT22;11055;50.870;4.316;2023-12-20T07:21:27;6.20;99.90
21787;DHT22;11055;50.870;4.316;2023-12-20T07:23:52;6.10;99.90
21787;DHT22;11055;50.870;4.316;2023-12-20T07:26:18;6.10;99.90
21787;DHT22;11055;50.870;4.316;2023-12-20T07:28:44;6.10;99.90
21787;DHT22;11055;50.870;4.316;2023-12-20T07:31:09;6.00;99.90
21787;DHT22;11055;50.870;4.316;2023-12-20T07:33:35;6.00;99.90
21787;DHT22;11055;50.870;4.316;2023-12-20T07:36:01;6.10;99.90
21787;DHT22;11055;50.870;4.316;2023-12-20T07:38:26;6.10;99.90
21787;DHT22;11055;50.870;4.316;2023-12-20T07:40:52;6.10;99.90
21787;DHT22;11055;50.870;4.316;2023-12-20T07:43:18;6.10;99.90
21787;DHT22;11055;50.870;4.316;2023-12-20T07:45:43;6.00;99.90
21787;DHT22;11055;50.870;4.316;2023-12-20T07:48:09;6.00;99.90
21787;DHT22;11055;50.870;4.316;2023-12-20T07:50:35;6.00;99.90
21787;DHT22;11055;50.870;4.316;2023-12-20T07:53:00;5.90;99.90
21787;DHT22;11055;50.870;4.316;2023-12-20T07:55:27;5.90;99.90
21787;DHT22;11055;50.870;4.316;2023-12-20T07:57:52;5.90;99.90
21787;DHT22;11055;50.870;4.316;2023-12-20T08:00:19;5.90;99.90
21787;DHT22;11055;50.870;4.316;2023-12-20T08:02:45;5.90;99.90
21787;DHT22;11055;50.870;4.316;2023-12-20T08:05:11;5.80;99.90
21787;DHT22;11055;50.870;4.316;2023-12-20T08:07:36;5.80;99.90
21787;DHT22;11055;50.870;4.316;2023-12-20T08:10:02;5.80;99.90
21787;DHT22;11055;50.870;4.316;2023-12-20T08:12:28;5.90;99.90
21787;DHT22;11055;50.870;4.316;2023-12-20T08:14:54;5.80;99.90
21787;DHT22;11055;50.870;4.316;2023-12-20T08:17:20;5.90;99.90
21787;DHT22;11055;50.870;4.316;2023-12-20T08:19:45;5.80;99.90
21787;DHT22;11055;50.870;4.316;2023-12-20T08:22:11;5.80;99.90
21787;DHT22;11055;50.870;4.316;2023-12-20T08:24:37;5.90;99.90
21787;DHT22;11055;50.870;4.316;2023-12-20T08:27:04;5.90;99.90
21787;DHT22;11055;50.870;4.316;2023-12-20T08:29:30;5.90;99.90
21787;DHT22;11055;50.870;4.316;2023-12-20T08:31:56;5.90;99.90
21787;DHT22;11055;50.870;4.316;2023-12-20T08:34:22;5.90;99.90
21787;DHT22;11055;50.870;4.316;2023-12-20T08:36:50;6.00;99.90
21787;DHT22;11055;50.870;4.316;2023-12-20T08:39:16;6.00;99.90
21787;DHT22;11055;50.870;4.316;2023-12-20T08:41:42;6.00;99.90
21787;DHT22;11055;50.870;4.316;2023-12-20T08:44:08;5.90;99.90
21787;DHT22;11055;50.870;4.316;2023-12-20T08:46:34;6.00;99.90
21787;DHT22;11055;50.870;4.316;2023-12-20T08:49:01;6.10;99.90
21787;DHT22;11055;50.870;4.316;2023-12-20T08:51:27;6.10;99.90
21787;DHT22;11055;50.870;4.316;2023-12-20T08:53:53;6.10;99.90
21787;DHT22;11055;50.870;4.316;2023-12-20T08:56:19;6.10;99.90
21787;DHT22;11055;50.870;4.316;2023-12-20T08:58:46;6.10;99.90
21787;DHT22;11055;50.870;4.316;2023-12-20T09:01:12;6.10;99.90
21787;DHT22;11055;50.870;4.316;2023-12-20T09:03:39;6.10;99.90
21787;DHT22;11055;50.870;4.316;2023-12-20T09:06:05;6.10;99.90
21787;DHT22;11055;50.870;4.316;2023-12-20T09:08:31;6.10;99.90
21787;DHT22;11055;50.870;4.316;2023-12-20T09:10:56;6.00;99.90
21787;DHT22;11055;50.870;4.316;2023-12-20T09:13:22;6.00;99.90
21787;DHT22;11055;50.870;4.316;2023-12-20T09:15:56;6.00;99.90
21787;DHT22;11055;50.870;4.316;2023-12-20T09:18:22;6.10;99.90
21787;DHT22;11055;50.870;4.316;2023-12-20T09:20:48;6.10;99.90
21787;DHT22;11055;50.870;4.316;2023-12-20T09:23:13;6.10;99.90
21787;DHT22;11055;50.870;4.316;2023-12-20T09:25:39;6.20;99.90
21787;DHT22;11055;50.870;4.316;2023-12-20T09:28:05;6.20;99.90
21787;DHT22;11055;50.870;4.316;2023-12-20T09:30:31;6.20;99.90
21787;DHT22;11055;50.870;4.316;2023-12-20T09:32:57;6.20;99.90
21787;DHT22;11055;50.870;4.316;2023-12-20T09:35:23;6.20;99.90
21787;DHT22;11055;50.870;4.316;2023-12-20T09:37:49;6.30;99.90
21787;DHT22;11055;50.870;4.316;2023-12-20T09:40:18;6.30;99.90
21787;DHT22;11055;50.870;4.316;2023-12-20T09:45:20;6.50;99.90
21787;DHT22;11055;50.870;4.316;2023-12-20T09:47:50;6.60;99.90
21787;DHT22;11055;50.870;4.316;2023-12-20T09:50:19;6.70;99.90
21787;DHT22;11055;50.870;4.316;2023-12-20T09:52:50;6.80;99.90
21787;DHT22;11055;50.870;4.316;2023-12-20T09:55:17;6.90;99.90
21787;DHT22;11055;50.870;4.316;2023-12-20T09:57:44;7.00;99.90
21787;DHT22;11055;50.870;4.316;2023-12-20T10:00:13;7.00;99.90
21787;DHT22;11055;50.870;4.316;2023-12-20T10:05:16;7.10;99.90
21787;DHT22;11055;50.870;4.316;2023-12-20T10:07:46;7.10;99.90
21787;DHT22;11055;50.870;4.316;2023-12-20T10:10:13;7.10;99.90
21787;DHT22;11055;50.870;4.316;2023-12-20T10:12:39;7.00;99.90
21787;DHT22;11055;50.870;4.316;2023-12-20T10:15:06;7.00;99.90
21787;DHT22;11055;50.870;4.316;2023-12-20T10:17:31;7.00;99.90
21787;DHT22;11055;50.870;4.316;2023-12-20T10:19:58;7.10;99.90
21787;DHT22;11055;50.870;4.316;2023-12-20T10:22:24;7.20;99.90
21787;DHT22;11055;50.870;4.316;2023-12-20T10:24:49;7.30;99.90
21787;DHT22;11055;50.870;4.316;2023-12-20T10:27:18;7.40;99.90
21787;DHT22;11055;50.870;4.316;2023-12-20T10:29:44;7.50;99.90
21787;DHT22;11055;50.870;4.316;2023-12-20T10:32:30;7.50;99.90
21787;DHT22;11055;50.870;4.316;2023-12-20T10:34:57;7.50;99.90
21787;DHT22;11055;50.870;4.316;2023-12-20T10:37:24;7.60;99.90
21787;DHT22;11055;50.870;4.316;2023-12-20T10:39:52;7.60;99.90
21787;DHT22;11055;50.870;4.316;2023-12-20T10:42:22;7.70;99.90
21787;DHT22;11055;50.870;4.316;2023-12-20T10:44:49;7.70;99.90
21787;DHT22;11055;50.870;4.316;2023-12-20T10:47:15;7.80;99.90
21787;DHT22;11055;50.870;4.316;2023-12-20T10:49:42;7.80;99.90
21787;DHT22;11055;50.870;4.316;2023-12-20T10:52:08;7.90;99.90
21787;DHT22;11055;50.870;4.316;2023-12-20T10:54:35;7.90;99.90
21787;DHT22;11055;50.870;4.316;2023-12-20T10:57:05;8.00;99.90
21787;DHT22;11055;50.870;4.316;2023-12-20T10:59:33;8.00;99.90
21787;DHT22;11055;50.870;4.316;2023-12-20T11:02:03;8.10;99.90
21787;DHT22;11055;50.870;4.316;2023-12-20T11:04:53;8.10;99.90
21787;DHT22;11055;50.870;4.316;2023-12-20T11:10:03;8.00;99.90
21787;DHT22;11055;50.870;4.316;2023-12-20T11:12:48;8.10;99.90
21787;DHT22;11055;50.870;4.316;2023-12-20T11:15:18;8.10;99.90
21787;DHT22;11055;50.870;4.316;2023-12-20T11:17:45;8.20;99.90
21787;DHT22;11055;50.870;4.316;2023-12-20T11:20:13;8.20;99.90
21787;DHT22;11055;50.870;4.316;2023-12-20T11:22:40;8.30;99.90
21787;DHT22;11055;50.870;4.316;2023-12-20T11:25:19;8.30;99.90
21787;DHT22;11055;50.870;4.316;2023-12-20T11:28:08;8.20;99.90
21787;DHT22;11055;50.870;4.316;2023-12-20T11:33:15;8.20;99.90
21787;DHT22;11055;50.870;4.316;2023-12-20T11:35:42;8.20;99.90
21787;DHT22;11055;50.870;4.316;2023-12-20T11:38:09;8.20;99.90
21787;DHT22;11055;50.870;4.316;2023-12-20T11:40:35;8.20;99.90
21787;DHT22;11055;50.870;4.316;2023-12-20T11:43:02;8.30;99.90
21787;DHT22;11055;50.870;4.316;2023-12-20T11:45:29;8.30;99.90
21787;DHT22;11055;50.870;4.316;2023-12-20T11:47:56;8.30;99.90
21787;DHT22;11055;50.870;4.316;2023-12-20T11:50:23;8.30;99.90
21787;DHT22;11055;50.870;4.316;2023-12-20T11:52:51;8.20;99.90
21787;DHT22;11055;50.870;4.316;2023-12-20T11:55:17;8.30;99.90
21787;DHT22;11055;50.870;4.316;2023-12-20T11:57:43;8.20;99.90
21787;DHT22;11055;50.870;4.316;2023-12-20T12:00:10;8.30;99.90
21787;DHT22;11055;50.870;4.316;2023-12-20T12:02:36;8.30;99.90
21787;DHT22;11055;50.870;4.316;2023-12-20T12:05:02;8.30;99.90
21787;DHT22;11055;50.870;4.316;2023-12-20T12:07:31;8.30;99.90
21787;DHT22;11055;50.870;4.316;2023-12-20T12:09:57;8.30;99.90
21787;DHT22;11055;50.870;4.316;2023-12-20T12:12:23;8.40;99.90
21787;DHT22;11055;50.870;4.316;2023-12-20T12:14:50;8.40;99.90
21787;DHT22;11055;50.870;4.316;2023-12-20T12:17:16;8.40;99.90
21787;DHT22;11055;50.870;4.316;2023-12-20T12:19:42;8.50;99.90
21787;DHT22;11055;50.870;4.316;2023-12-20T12:22:13;8.60;99.90
21787;DHT22;11055;50.870;4.316;2023-12-20T12:24:41;8.60;99.90
21787;DHT22;11055;50.870;4.316;2023-12-20T12:27:07;8.60;99.90
21787;DHT22;11055;50.870;4.316;2023-12-20T12:29:34;8.70;99.90
21787;DHT22;11055;50.870;4.316;2023-12-20T12:32:00;8.70;99.90
21787;DHT22;11055;50.870;4.316;2023-12-20T12:34:28;8.70;99.90
21787;DHT22;11055;50.870;4.316;2023-12-20T12:36:54;8.70;99.90
21787;DHT22;11055;50.870;4.316;2023-12-20T12:39:20;8.60;99.90
21787;DHT22;11055;50.870;4.316;2023-12-20T12:41:46;8.60;99.90
21787;DHT22;11055;50.870;4.316;2023-12-20T12:44:12;8.60;99.90
21787;DHT22;11055;50.870;4.316;2023-12-20T12:46:37;8.60;99.90
21787;DHT22;11055;50.870;4.316;2023-12-20T12:49:03;8.60;99.90
21787;DHT22;11055;50.870;4.316;2023-12-20T12:51:29;8.60;99.90
21787;DHT22;11055;50.870;4.316;2023-12-20T12:53:55;8.70;99.90
21787;DHT22;11055;50.870;4.316;2023-12-20T12:56:20;8.70;99.90
21787;DHT22;11055;50.870;4.316;2023-12-20T12:58:48;8.70;99.90
21787;DHT22;11055;50.870;4.316;2023-12-20T13:01:14;8.70;99.90
21787;DHT22;11055;50.870;4.316;2023-12-20T13:03:40;8.70;99.90
21787;DHT22;11055;50.870;4.316;2023-12-20T13:06:06;8.70;99.90
21787;DHT22;11055;50.870;4.316;2023-12-20T13:08:34;8.60;99.90
21787;DHT22;11055;50.870;4.316;2023-12-20T13:10:59;8.70;99.90
21787;DHT22;11055;50.870;4.316;2023-12-20T13:13:27;8.70;99.90
21787;DHT22;11055;50.870;4.316;2023-12-20T13:15:52;8.70;99.90
21787;DHT22;11055;50.870;4.316;2023-12-20T13:18:21;8.70;99.90
21787;DHT22;11055;50.870;4.316;2023-12-20T13:20:47;8.80;99.90
21787;DHT22;11055;50.870;4.316;2023-12-20T13:23:13;8.90;99.90
21787;DHT22;11055;50.870;4.316;2023-12-20T13:25:39;8.90;99.90
21787;DHT22;11055;50.870;4.316;2023-12-20T13:28:05;9.00;99.90
21787;DHT22;11055;50.870;4.316;2023-12-20T13:30:31;9.00;99.90
21787;DHT22;11055;50.870;4.316;2023-12-20T13:32:56;9.00;99.90
21787;DHT22;11055;50.870;4.316;2023-12-20T13:35:22;9.00;99.90
21787;DHT22;11055;50.870;4.316;2023-12-20T13:37:48;9.00;99.90
21787;DHT22;11055;50.870;4.316;2023-12-20T13:40:13;8.90;99.90
21787;DHT22;11055;50.870;4.316;2023-12-20T13:42:39;9.00;99.90
21787;DHT22;11055;50.870;4.316;2023-12-20T13:45:06;9.00;99.90
21787;DHT22;11055;50.870;4.316;2023-12-20T13:47:32;9.00;99.90
21787;DHT22;11055;50.870;4.316;2023-12-20T13:49:58;9.00;99.90
21787;DHT22;11055;50.870;4.316;2023-12-20T13:52:24;9.10;99.90
21787;DHT22;11055;50.870;4.316;2023-12-20T13:54:49;9.10;99.90
21787;DHT22;11055;50.870;4.316;2023-12-20T13:57:15;9.00;99.90
21787;DHT22;11055;50.870;4.316;2023-12-20T13:59:41;9.10;99.90
21787;DHT22;11055;50.870;4.316;2023-12-20T14:02:06;9.10;99.90
21787;DHT22;11055;50.870;4.316;2023-12-20T14:04:32;9.20;99.90
21787;DHT22;11055;50.870;4.316;2023-12-20T14:06:58;9.20;99.90
21787;DHT22;11055;50.870;4.316;2023-12-20T14:09:23;9.20;99.90
21787;DHT22;11055;50.870;4.316;2023-12-20T14:11:49;9.20;99.90
21787;DHT22;11055;50.870;4.316;2023-12-20T14:14:15;9.30;99.90
21787;DHT22;11055;50.870;4.316;2023-12-20T14:16:41;9.30;99.90
21787;DHT22;11055;50.870;4.316;2023-12-20T14:19:10;9.30;99.90
21787;DHT22;11055;50.870;4.316;2023-12-20T14:21:36;9.30;99.90
21787;DHT22;11055;50.870;4.316;2023-12-20T14:24:02;9.30;99.90
21787;DHT22;11055;50.870;4.316;2023-12-20T14:26:30;9.30;99.90
21787;DHT22;11055;50.870;4.316;2023-12-20T14:28:55;9.40;99.90
21787;DHT22;11055;50.870;4.316;2023-12-20T14:31:21;9.40;99.90
21787;DHT22;11055;50.870;4.316;2023-12-20T14:33:49;9.30;99.90
21787;DHT22;11055;50.870;4.316;2023-12-20T14:36:16;9.30;99.90
21787;DHT22;11055;50.870;4.316;2023-12-20T14:38:43;9.30;99.90
21787;DHT22;11055;50.870;4.316;2023-12-20T14:41:09;9.30;99.90
21787;DHT22;11055;50.870;4.316;2023-12-20T14:43:35;9.40;99.90
21787;DHT22;11055;50.870;4.316;2023-12-20T14:46:01;9.40;99.90
21787;DHT22;11055;50.870;4.316;2023-12-20T14:48:26;9.40;99.90
21787;DHT22;11055;50.870;4.316;2023-12-20T14:50:53;9.40;99.90
21787;DHT22;11055;50.870;4.316;2023-12-20T14:53:19;9.40;99.90
21787;DHT22;11055;50.870;4.316;2023-12-20T14:55:45;9.40;99.90
21787;DHT22;11055;50.870;4.316;2023-12-20T14:58:12;9.50;99.90
21787;DHT22;11055;50.870;4.316;2023-12-20T15:00:37;9.50;99.90
21787;DHT22;11055;50.870;4.316;2023-12-20T15:03:03;9.50;99.90
21787;DHT22;11055;50.870;4.316;2023-12-20T15:05:31;9.50;99.90
21787;DHT22;11055;50.870;4.316;2023-12-20T15:07:57;9.60;99.90
21787;DHT22;11055;50.870;4.316;2023-12-20T15:10:22;9.60;99.90
21787;DHT22;11055;50.870;4.316;2023-12-20T15:12:48;9.60;99.90
21787;DHT22;11055;50.870;4.316;2023-12-20T15:15:14;9.50;99.90
21787;DHT22;11055;50.870;4.316;2023-12-20T15:17:40;9.50;99.90
21787;DHT22;11055;50.870;4.316;2023-12-20T15:20:06;9.50;99.90
21787;DHT22;11055;50.870;4.316;2023-12-20T15:22:35;9.60;99.90
21787;DHT22;11055;50.870;4.316;2023-12-20T15:25:01;9.60;99.90
21787;DHT22;11055;50.870;4.316;2023-12-20T15:27:27;9.50;99.90
21787;DHT22;11055;50.870;4.316;2023-12-20T15:29:53;9.60;99.90
21787;DHT22;11055;50.870;4.316;2023-12-20T15:32:18;9.60;99.90
21787;DHT22;11055;50.870;4.316;2023-12-20T15:34:45;9.60;99.90
21787;DHT22;11055;50.870;4.316;2023-12-20T15:37:11;9.60;99.90
21787;DHT22;11055;50.870;4.316;2023-12-20T15:39:36;9.50;99.90
21787;DHT22;11055;50.870;4.316;2023-12-20T15:42:02;9.50;99.90
21787;DHT22;11055;50.870;4.316;2023-12-20T15:44:28;9.60;99.90
21787;DHT22;11055;50.870;4.316;2023-12-20T15:46:54;9.50;99.90
21787;DHT22;11055;50.870;4.316;2023-12-20T15:49:19;9.60;99.90